sensor_id;sensor_type;location;lat;lon;timestamp;P1;durP1;ratioP1;P2;durP2;ratioP2
40198;SDS011;25906;43.536;26.068;2023-03-01T00:01:51;20.05;;;9.50;;
40198;SDS011;25906;43.536;26.068;2023-03-01T00:04:37;14.80;;;8.95;;
40198;SDS011;25906;43.536;26.068;2023-03-01T00:07:22;16.65;;;8.25;;
40198;SDS011;25906;43.536;26.068;2023-03-01T00:10:08;17.98;;;9.02;;
40198;SDS011;25906;43.536;26.068;2023-03-01T00:12:53;15.30;;;8.85;;
40198;SDS011;25906;43.536;26.068;2023-03-01T00:15:41;18.70;;;9.43;;
40198;SDS011;25906;43.536;26.068;2023-03-01T00:18:26;15.73;;;8.77;;
40198;SDS011;25906;43.536;26.068;2023-03-01T00:21:12;16.45;;;8.98;;
40198;SDS011;25906;43.536;26.068;2023-03-01T00:23:57;21.65;;;10.23;;
40198;SDS011;25906;43.536;26.068;2023-03-01T00:26:43;16.80;;;9.02;;
40198;SDS011;25906;43.536;26.068;2023-03-01T00:32:14;17.45;;;8.95;;
40198;SDS011;25906;43.536;26.068;2023-03-01T00:34:59;15.52;;;9.15;;
40198;SDS011;25906;43.536;26.068;2023-03-01T00:37:45;15.75;;;8.90;;
40198;SDS011;25906;43.536;26.068;2023-03-01T00:40:32;17.33;;;9.43;;
40198;SDS011;25906;43.536;26.068;2023-03-01T00:43:19;13.88;;;7.85;;
40198;SDS011;25906;43.536;26.068;2023-03-01T00:46:06;18.13;;;9.75;;
40198;SDS011;25906;43.536;26.068;2023-03-01T00:48:53;15.98;;;9.00;;
40198;SDS011;25906;43.536;26.068;2023-03-01T00:51:39;21.17;;;9.27;;
40198;SDS011;25906;43.536;26.068;2023-03-01T00:54:26;16.98;;;9.52;;
40198;SDS011;25906;43.536;26.068;2023-03-01T00:57:11;18.17;;;8.48;;
40198;SDS011;25906;43.536;26.068;2023-03-01T00:59:57;16.65;;;8.93;;
40198;SDS011;25906;43.536;26.068;2023-03-01T01:02:42;16.50;;;8.75;;
40198;SDS011;25906;43.536;26.068;2023-03-01T01:05:28;15.60;;;8.95;;
40198;SDS011;25906;43.536;26.068;2023-03-01T01:08:13;16.67;;;9.13;;
40198;SDS011;25906;43.536;26.068;2023-03-01T01:10:59;15.45;;;8.25;;
40198;SDS011;25906;43.536;26.068;2023-03-01T01:13:45;14.88;;;8.32;;
40198;SDS011;25906;43.536;26.068;2023-03-01T01:16:31;15.77;;;7.97;;
40198;SDS011;25906;43.536;26.068;2023-03-01T01:19:17;11.07;;;6.88;;
40198;SDS011;25906;43.536;26.068;2023-03-01T01:22:02;12.20;;;7.32;;
40198;SDS011;25906;43.536;26.068;2023-03-01T01:27:33;10.35;;;6.18;;
40198;SDS011;25906;43.536;26.068;2023-03-01T01:30:19;14.70;;;7.22;;
40198;SDS011;25906;43.536;26.068;2023-03-01T01:33:04;14.13;;;7.68;;
40198;SDS011;25906;43.536;26.068;2023-03-01T01:35:49;12.50;;;6.78;;
40198;SDS011;25906;43.536;26.068;2023-03-01T01:38:35;11.20;;;6.75;;
40198;SDS011;25906;43.536;26.068;2023-03-01T01:41:22;11.23;;;6.22;;
40198;SDS011;25906;43.536;26.068;2023-03-01T01:44:13;9.48;;;6.00;;
40198;SDS011;25906;43.536;26.068;2023-03-01T01:47:06;9.63;;;5.85;;
40198;SDS011;25906;43.536;26.068;2023-03-01T01:49:58;8.27;;;5.10;;
40198;SDS011;25906;43.536;26.068;2023-03-01T01:52:43;8.63;;;5.40;;
40198;SDS011;25906;43.536;26.068;2023-03-01T01:55:31;10.48;;;6.05;;
40198;SDS011;25906;43.536;26.068;2023-03-01T02:01:04;8.75;;;5.80;;
40198;SDS011;25906;43.536;26.068;2023-03-01T02:03:50;10.60;;;5.70;;
40198;SDS011;25906;43.536;26.068;2023-03-01T02:09:26;9.98;;;5.97;;
40198;SDS011;25906;43.536;26.068;2023-03-01T02:12:16;11.32;;;5.93;;
40198;SDS011;25906;43.536;26.068;2023-03-01T02:15:03;7.97;;;4.90;;
40198;SDS011;25906;43.536;26.068;2023-03-01T02:17:49;10.88;;;6.57;;
40198;SDS011;25906;43.536;26.068;2023-03-01T02:23:30;9.48;;;5.47;;
40198;SDS011;25906;43.536;26.068;2023-03-01T02:26:19;9.85;;;5.65;;
40198;SDS011;25906;43.536;26.068;2023-03-01T02:29:09;8.25;;;4.80;;
40198;SDS011;25906;43.536;26.068;2023-03-01T02:31:55;8.77;;;5.38;;
40198;SDS011;25906;43.536;26.068;2023-03-01T02:34:43;7.75;;;4.80;;
40198;SDS011;25906;43.536;26.068;2023-03-01T02:37:29;10.77;;;5.70;;
40198;SDS011;25906;43.536;26.068;2023-03-01T02:40:15;7.45;;;4.80;;
40198;SDS011;25906;43.536;26.068;2023-03-01T02:43:03;7.97;;;5.03;;
40198;SDS011;25906;43.536;26.068;2023-03-01T02:45:54;8.10;;;4.20;;
40198;SDS011;25906;43.536;26.068;2023-03-01T02:48:48;8.73;;;4.95;;
40198;SDS011;25906;43.536;26.068;2023-03-01T02:54:40;11.93;;;4.82;;
40198;SDS011;25906;43.536;26.068;2023-03-01T02:57:32;8.07;;;5.10;;
40198;SDS011;25906;43.536;26.068;2023-03-01T03:00:24;6.97;;;4.65;;
40198;SDS011;25906;43.536;26.068;2023-03-01T03:03:13;7.20;;;4.60;;
40198;SDS011;25906;43.536;26.068;2023-03-01T03:06:01;7.40;;;4.38;;
40198;SDS011;25906;43.536;26.068;2023-03-01T03:08:46;7.68;;;4.65;;
40198;SDS011;25906;43.536;26.068;2023-03-01T03:11:32;7.45;;;3.85;;
40198;SDS011;25906;43.536;26.068;2023-03-01T03:14:17;8.75;;;5.07;;
40198;SDS011;25906;43.536;26.068;2023-03-01T03:17:03;6.78;;;4.45;;
40198;SDS011;25906;43.536;26.068;2023-03-01T03:19:51;6.63;;;4.03;;
40198;SDS011;25906;43.536;26.068;2023-03-01T03:22:40;6.38;;;4.05;;
40198;SDS011;25906;43.536;26.068;2023-03-01T03:25:26;7.05;;;4.10;;
40198;SDS011;25906;43.536;26.068;2023-03-01T03:28:13;7.50;;;4.13;;
40198;SDS011;25906;43.536;26.068;2023-03-01T03:31:00;5.82;;;3.55;;
40198;SDS011;25906;43.536;26.068;2023-03-01T03:33:49;6.15;;;3.92;;
40198;SDS011;25906;43.536;26.068;2023-03-01T03:36:34;5.45;;;3.78;;
40198;SDS011;25906;43.536;26.068;2023-03-01T03:39:20;8.20;;;3.88;;
40198;SDS011;25906;43.536;26.068;2023-03-01T03:42:05;6.00;;;3.45;;
40198;SDS011;25906;43.536;26.068;2023-03-01T03:44:51;6.15;;;3.70;;
40198;SDS011;25906;43.536;26.068;2023-03-01T03:47:36;6.38;;;3.88;;
40198;SDS011;25906;43.536;26.068;2023-03-01T03:50:21;6.38;;;3.90;;
40198;SDS011;25906;43.536;26.068;2023-03-01T03:53:10;4.57;;;3.42;;
40198;SDS011;25906;43.536;26.068;2023-03-01T03:55:56;6.53;;;3.35;;
40198;SDS011;25906;43.536;26.068;2023-03-01T03:58:43;6.93;;;3.63;;
40198;SDS011;25906;43.536;26.068;2023-03-01T04:01:28;4.30;;;3.30;;
40198;SDS011;25906;43.536;26.068;2023-03-01T04:04:13;5.75;;;3.80;;
40198;SDS011;25906;43.536;26.068;2023-03-01T04:07:02;5.57;;;3.70;;
40198;SDS011;25906;43.536;26.068;2023-03-01T04:09:48;7.50;;;4.43;;
40198;SDS011;25906;43.536;26.068;2023-03-01T04:12:33;6.45;;;3.90;;
40198;SDS011;25906;43.536;26.068;2023-03-01T04:15:19;5.85;;;3.65;;
40198;SDS011;25906;43.536;26.068;2023-03-01T04:18:05;8.57;;;4.03;;
40198;SDS011;25906;43.536;26.068;2023-03-01T04:20:52;7.47;;;3.90;;
40198;SDS011;25906;43.536;26.068;2023-03-01T04:23:40;9.25;;;4.78;;
40198;SDS011;25906;43.536;26.068;2023-03-01T04:26:26;6.47;;;3.95;;
40198;SDS011;25906;43.536;26.068;2023-03-01T04:29:12;7.55;;;4.50;;
40198;SDS011;25906;43.536;26.068;2023-03-01T04:31:57;7.05;;;4.30;;
40198;SDS011;25906;43.536;26.068;2023-03-01T04:34:43;6.25;;;3.80;;
40198;SDS011;25906;43.536;26.068;2023-03-01T04:37:29;6.25;;;4.10;;
40198;SDS011;25906;43.536;26.068;2023-03-01T04:40:14;6.85;;;4.28;;
40198;SDS011;25906;43.536;26.068;2023-03-01T04:43:02;7.20;;;4.07;;
40198;SDS011;25906;43.536;26.068;2023-03-01T04:45:48;9.07;;;4.57;;
40198;SDS011;25906;43.536;26.068;2023-03-01T04:48:33;9.80;;;4.90;;
40198;SDS011;25906;43.536;26.068;2023-03-01T04:51:19;9.18;;;4.50;;
40198;SDS011;25906;43.536;26.068;2023-03-01T04:54:05;6.97;;;4.30;;
40198;SDS011;25906;43.536;26.068;2023-03-01T04:56:54;7.18;;;4.20;;
40198;SDS011;25906;43.536;26.068;2023-03-01T04:59:39;7.57;;;4.53;;
40198;SDS011;25906;43.536;26.068;2023-03-01T05:02:25;7.80;;;4.45;;
40198;SDS011;25906;43.536;26.068;2023-03-01T05:05:10;6.75;;;4.28;;
40198;SDS011;25906;43.536;26.068;2023-03-01T05:07:57;8.88;;;4.75;;
40198;SDS011;25906;43.536;26.068;2023-03-01T05:10:45;7.50;;;4.63;;
40198;SDS011;25906;43.536;26.068;2023-03-01T05:13:31;7.78;;;4.28;;
40198;SDS011;25906;43.536;26.068;2023-03-01T05:16:16;8.07;;;4.10;;
40198;SDS011;25906;43.536;26.068;2023-03-01T05:21:56;8.30;;;4.82;;
40198;SDS011;25906;43.536;26.068;2023-03-01T05:24:51;8.10;;;4.90;;
40198;SDS011;25906;43.536;26.068;2023-03-01T05:27:37;8.82;;;5.45;;
40198;SDS011;25906;43.536;26.068;2023-03-01T05:30:23;9.13;;;5.43;;
40198;SDS011;25906;43.536;26.068;2023-03-01T05:33:08;9.68;;;5.70;;
40198;SDS011;25906;43.536;26.068;2023-03-01T05:36:00;9.23;;;5.30;;
40198;SDS011;25906;43.536;26.068;2023-03-01T05:38:45;10.90;;;5.10;;
40198;SDS011;25906;43.536;26.068;2023-03-01T05:41:31;12.35;;;5.90;;
40198;SDS011;25906;43.536;26.068;2023-03-01T05:44:16;13.27;;;5.95;;
40198;SDS011;25906;43.536;26.068;2023-03-01T05:47:01;9.57;;;5.30;;
40198;SDS011;25906;43.536;26.068;2023-03-01T05:49:47;14.55;;;6.60;;
40198;SDS011;25906;43.536;26.068;2023-03-01T05:52:32;10.95;;;5.97;;
40198;SDS011;25906;43.536;26.068;2023-03-01T05:55:18;13.27;;;6.80;;
40198;SDS011;25906;43.536;26.068;2023-03-01T05:58:06;12.50;;;6.57;;
40198;SDS011;25906;43.536;26.068;2023-03-01T06:00:55;12.05;;;6.38;;
40198;SDS011;25906;43.536;26.068;2023-03-01T06:03:41;10.90;;;6.10;;
40198;SDS011;25906;43.536;26.068;2023-03-01T06:06:26;12.35;;;6.45;;
40198;SDS011;25906;43.536;26.068;2023-03-01T06:09:11;13.35;;;6.78;;
40198;SDS011;25906;43.536;26.068;2023-03-01T06:11:57;13.52;;;6.10;;
40198;SDS011;25906;43.536;26.068;2023-03-01T06:14:42;13.70;;;6.60;;
40198;SDS011;25906;43.536;26.068;2023-03-01T06:17:32;10.95;;;6.60;;
40198;SDS011;25906;43.536;26.068;2023-03-01T06:20:23;13.65;;;7.95;;
40198;SDS011;25906;43.536;26.068;2023-03-01T06:23:10;15.60;;;7.75;;
40198;SDS011;25906;43.536;26.068;2023-03-01T06:25:56;14.68;;;7.70;;
40198;SDS011;25906;43.536;26.068;2023-03-01T06:28:41;10.90;;;6.38;;
40198;SDS011;25906;43.536;26.068;2023-03-01T06:31:26;11.57;;;6.72;;
40198;SDS011;25906;43.536;26.068;2023-03-01T06:34:12;12.25;;;6.60;;
40198;SDS011;25906;43.536;26.068;2023-03-01T06:36:58;17.63;;;7.63;;
40198;SDS011;25906;43.536;26.068;2023-03-01T06:39:44;12.07;;;6.82;;
40198;SDS011;25906;43.536;26.068;2023-03-01T06:42:29;12.00;;;7.07;;
40198;SDS011;25906;43.536;26.068;2023-03-01T06:45:14;13.73;;;6.57;;
40198;SDS011;25906;43.536;26.068;2023-03-01T06:50:46;8.60;;;4.83;;
40198;SDS011;25906;43.536;26.068;2023-03-01T06:53:31;14.75;;;6.93;;
40198;SDS011;25906;43.536;26.068;2023-03-01T06:56:17;13.00;;;6.75;;
40198;SDS011;25906;43.536;26.068;2023-03-01T06:59:02;12.27;;;7.00;;
40198;SDS011;25906;43.536;26.068;2023-03-01T07:01:48;11.77;;;5.95;;
40198;SDS011;25906;43.536;26.068;2023-03-01T07:04:33;10.77;;;6.13;;
40198;SDS011;25906;43.536;26.068;2023-03-01T07:07:19;12.00;;;6.43;;
40198;SDS011;25906;43.536;26.068;2023-03-01T07:10:05;11.90;;;6.68;;
40198;SDS011;25906;43.536;26.068;2023-03-01T07:12:54;11.35;;;6.88;;
40198;SDS011;25906;43.536;26.068;2023-03-01T07:15:40;13.23;;;6.63;;
40198;SDS011;25906;43.536;26.068;2023-03-01T07:18:26;10.60;;;5.95;;
40198;SDS011;25906;43.536;26.068;2023-03-01T07:21:12;13.90;;;7.10;;
40198;SDS011;25906;43.536;26.068;2023-03-01T07:23:58;12.02;;;6.78;;
40198;SDS011;25906;43.536;26.068;2023-03-01T07:26:43;13.73;;;6.88;;
40198;SDS011;25906;43.536;26.068;2023-03-01T07:29:29;12.32;;;6.45;;
40198;SDS011;25906;43.536;26.068;2023-03-01T07:32:14;15.90;;;6.28;;
40198;SDS011;25906;43.536;26.068;2023-03-01T07:35:00;11.68;;;6.50;;
40198;SDS011;25906;43.536;26.068;2023-03-01T07:37:45;11.32;;;6.32;;
40198;SDS011;25906;43.536;26.068;2023-03-01T07:40:31;14.25;;;7.43;;
40198;SDS011;25906;43.536;26.068;2023-03-01T07:43:16;11.05;;;6.53;;
40198;SDS011;25906;43.536;26.068;2023-03-01T07:46:02;13.30;;;7.20;;
40198;SDS011;25906;43.536;26.068;2023-03-01T07:48:48;12.07;;;6.85;;
40198;SDS011;25906;43.536;26.068;2023-03-01T07:51:34;12.30;;;6.93;;
40198;SDS011;25906;43.536;26.068;2023-03-01T07:54:19;11.13;;;6.90;;
40198;SDS011;25906;43.536;26.068;2023-03-01T07:57:04;13.65;;;7.22;;
40198;SDS011;25906;43.536;26.068;2023-03-01T07:59:50;13.75;;;6.85;;
40198;SDS011;25906;43.536;26.068;2023-03-01T08:02:35;11.52;;;6.68;;
40198;SDS011;25906;43.536;26.068;2023-03-01T08:05:21;12.07;;;7.32;;
40198;SDS011;25906;43.536;26.068;2023-03-01T08:08:07;10.93;;;6.32;;
40198;SDS011;25906;43.536;26.068;2023-03-01T08:10:52;11.52;;;6.90;;
40198;SDS011;25906;43.536;26.068;2023-03-01T08:13:42;10.23;;;6.43;;
40198;SDS011;25906;43.536;26.068;2023-03-01T08:16:28;13.20;;;6.47;;
40198;SDS011;25906;43.536;26.068;2023-03-01T08:19:13;13.82;;;6.40;;
40198;SDS011;25906;43.536;26.068;2023-03-01T08:21:58;13.60;;;7.05;;
40198;SDS011;25906;43.536;26.068;2023-03-01T08:24:44;13.40;;;6.95;;
40198;SDS011;25906;43.536;26.068;2023-03-01T08:27:30;12.38;;;7.63;;
40198;SDS011;25906;43.536;26.068;2023-03-01T08:30:15;12.20;;;6.88;;
40198;SDS011;25906;43.536;26.068;2023-03-01T08:33:01;12.25;;;7.45;;
40198;SDS011;25906;43.536;26.068;2023-03-01T08:35:46;11.95;;;7.03;;
40198;SDS011;25906;43.536;26.068;2023-03-01T08:38:32;12.95;;;7.22;;
40198;SDS011;25906;43.536;26.068;2023-03-01T08:41:19;12.63;;;6.97;;
40198;SDS011;25906;43.536;26.068;2023-03-01T08:44:04;12.00;;;7.10;;
40198;SDS011;25906;43.536;26.068;2023-03-01T08:46:51;11.50;;;7.10;;
40198;SDS011;25906;43.536;26.068;2023-03-01T08:49:38;13.35;;;7.43;;
40198;SDS011;25906;43.536;26.068;2023-03-01T08:52:23;14.30;;;8.15;;
40198;SDS011;25906;43.536;26.068;2023-03-01T08:55:09;12.57;;;7.15;;
40198;SDS011;25906;43.536;26.068;2023-03-01T08:57:55;14.38;;;7.80;;
40198;SDS011;25906;43.536;26.068;2023-03-01T09:00:40;14.48;;;8.18;;
40198;SDS011;25906;43.536;26.068;2023-03-01T09:03:26;16.38;;;7.57;;
40198;SDS011;25906;43.536;26.068;2023-03-01T09:06:12;16.17;;;8.38;;
40198;SDS011;25906;43.536;26.068;2023-03-01T09:08:59;14.82;;;7.78;;
40198;SDS011;25906;43.536;26.068;2023-03-01T09:11:45;15.05;;;8.35;;
40198;SDS011;25906;43.536;26.068;2023-03-01T09:14:31;16.60;;;9.52;;
40198;SDS011;25906;43.536;26.068;2023-03-01T09:17:17;18.27;;;8.77;;
40198;SDS011;25906;43.536;26.068;2023-03-01T09:20:02;17.13;;;8.80;;
40198;SDS011;25906;43.536;26.068;2023-03-01T09:22:50;17.08;;;9.63;;
40198;SDS011;25906;43.536;26.068;2023-03-01T09:25:36;15.50;;;9.25;;
40198;SDS011;25906;43.536;26.068;2023-03-01T09:28:21;17.35;;;9.20;;
40198;SDS011;25906;43.536;26.068;2023-03-01T09:31:08;17.02;;;9.85;;
40198;SDS011;25906;43.536;26.068;2023-03-01T09:33:53;18.23;;;9.63;;
40198;SDS011;25906;43.536;26.068;2023-03-01T09:36:39;15.07;;;8.50;;
40198;SDS011;25906;43.536;26.068;2023-03-01T09:39:25;17.00;;;9.10;;
40198;SDS011;25906;43.536;26.068;2023-03-01T09:42:10;21.10;;;12.73;;
40198;SDS011;25906;43.536;26.068;2023-03-01T09:45:04;23.67;;;12.82;;
40198;SDS011;25906;43.536;26.068;2023-03-01T09:47:54;18.35;;;10.65;;
40198;SDS011;25906;43.536;26.068;2023-03-01T09:50:41;17.75;;;9.80;;
40198;SDS011;25906;43.536;26.068;2023-03-01T09:53:32;17.20;;;9.20;;
40198;SDS011;25906;43.536;26.068;2023-03-01T09:56:30;18.88;;;10.02;;
40198;SDS011;25906;43.536;26.068;2023-03-01T09:59:26;19.40;;;9.52;;
40198;SDS011;25906;43.536;26.068;2023-03-01T10:02:32;16.77;;;8.90;;
40198;SDS011;25906;43.536;26.068;2023-03-01T10:08:40;19.85;;;10.80;;
40198;SDS011;25906;43.536;26.068;2023-03-01T10:11:30;23.25;;;11.93;;
40198;SDS011;25906;43.536;26.068;2023-03-01T10:17:30;16.50;;;9.43;;
40198;SDS011;25906;43.536;26.068;2023-03-01T10:20:22;18.63;;;9.73;;
40198;SDS011;25906;43.536;26.068;2023-03-01T10:23:09;19.85;;;9.68;;
40198;SDS011;25906;43.536;26.068;2023-03-01T10:31:46;15.57;;;8.93;;
40198;SDS011;25906;43.536;26.068;2023-03-01T10:34:34;15.82;;;8.77;;
40198;SDS011;25906;43.536;26.068;2023-03-01T10:37:21;16.13;;;8.63;;
40198;SDS011;25906;43.536;26.068;2023-03-01T10:40:09;13.85;;;8.73;;
40198;SDS011;25906;43.536;26.068;2023-03-01T10:42:57;16.02;;;8.98;;
40198;SDS011;25906;43.536;26.068;2023-03-01T10:45:45;16.52;;;9.07;;
40198;SDS011;25906;43.536;26.068;2023-03-01T10:48:30;18.00;;;9.65;;
40198;SDS011;25906;43.536;26.068;2023-03-01T10:51:17;20.35;;;10.30;;
40198;SDS011;25906;43.536;26.068;2023-03-01T10:54:05;20.08;;;10.75;;
40198;SDS011;25906;43.536;26.068;2023-03-01T10:57:00;18.70;;;10.43;;
40198;SDS011;25906;43.536;26.068;2023-03-01T10:59:47;18.55;;;10.95;;
40198;SDS011;25906;43.536;26.068;2023-03-01T11:09:01;19.27;;;10.48;;
40198;SDS011;25906;43.536;26.068;2023-03-01T11:12:13;20.20;;;10.07;;
40198;SDS011;25906;43.536;26.068;2023-03-01T11:15:00;19.45;;;9.95;;
40198;SDS011;25906;43.536;26.068;2023-03-01T11:17:47;17.55;;;9.98;;
40198;SDS011;25906;43.536;26.068;2023-03-01T11:20:34;16.98;;;9.75;;
40198;SDS011;25906;43.536;26.068;2023-03-01T11:23:21;17.30;;;9.38;;
40198;SDS011;25906;43.536;26.068;2023-03-01T11:26:07;18.25;;;10.20;;
40198;SDS011;25906;43.536;26.068;2023-03-01T11:28:55;17.00;;;10.07;;
40198;SDS011;25906;43.536;26.068;2023-03-01T11:31:43;17.70;;;10.40;;
40198;SDS011;25906;43.536;26.068;2023-03-01T11:34:35;20.67;;;10.30;;
40198;SDS011;25906;43.536;26.068;2023-03-01T11:37:43;18.75;;;10.07;;
40198;SDS011;25906;43.536;26.068;2023-03-01T11:54:00;18.83;;;9.77;;
40198;SDS011;25906;43.536;26.068;2023-03-01T11:56:40;18.98;;;9.57;;
40198;SDS011;25906;43.536;26.068;2023-03-01T12:00:03;20.25;;;9.73;;
40198;SDS011;25906;43.536;26.068;2023-03-01T12:19:22;19.70;;;10.82;;
40198;SDS011;25906;43.536;26.068;2023-03-01T12:22:32;22.80;;;10.93;;
40198;SDS011;25906;43.536;26.068;2023-03-01T12:46:42;18.13;;;9.40;;
40198;SDS011;25906;43.536;26.068;2023-03-01T12:49:33;17.92;;;9.38;;
40198;SDS011;25906;43.536;26.068;2023-03-01T12:52:24;19.48;;;10.52;;
40198;SDS011;25906;43.536;26.068;2023-03-01T12:55:34;19.67;;;9.90;;
40198;SDS011;25906;43.536;26.068;2023-03-01T13:07:41;19.85;;;10.18;;
40198;SDS011;25906;43.536;26.068;2023-03-01T13:10:47;20.20;;;10.20;;
40198;SDS011;25906;43.536;26.068;2023-03-01T13:13:45;18.70;;;10.25;;
40198;SDS011;25906;43.536;26.068;2023-03-01T13:19:26;24.98;;;11.23;;
40198;SDS011;25906;43.536;26.068;2023-03-01T13:22:31;23.75;;;10.52;;
40198;SDS011;25906;43.536;26.068;2023-03-01T13:25:18;27.65;;;12.05;;
40198;SDS011;25906;43.536;26.068;2023-03-01T13:37:36;29.05;;;12.48;;
40198;SDS011;25906;43.536;26.068;2023-03-01T13:43:30;26.65;;;13.48;;
40198;SDS011;25906;43.536;26.068;2023-03-01T13:46:20;25.17;;;11.80;;
40198;SDS011;25906;43.536;26.068;2023-03-01T13:49:09;26.10;;;12.35;;
40198;SDS011;25906;43.536;26.068;2023-03-01T13:51:59;25.40;;;12.27;;
40198;SDS011;25906;43.536;26.068;2023-03-01T13:54:44;29.13;;;13.05;;
40198;SDS011;25906;43.536;26.068;2023-03-01T13:57:32;29.20;;;13.23;;
40198;SDS011;25906;43.536;26.068;2023-03-01T14:03:18;29.00;;;12.57;;
40198;SDS011;25906;43.536;26.068;2023-03-01T14:09:08;29.25;;;12.93;;
40198;SDS011;25906;43.536;26.068;2023-03-01T14:14:59;27.25;;;13.90;;
40198;SDS011;25906;43.536;26.068;2023-03-01T14:20:44;29.23;;;13.52;;
40198;SDS011;25906;43.536;26.068;2023-03-01T14:23:37;23.80;;;12.55;;
40198;SDS011;25906;43.536;26.068;2023-03-01T14:26:24;26.50;;;13.00;;
40198;SDS011;25906;43.536;26.068;2023-03-01T14:32:26;27.13;;;11.77;;
40198;SDS011;25906;43.536;26.068;2023-03-01T14:35:20;25.83;;;12.00;;
40198;SDS011;25906;43.536;26.068;2023-03-01T14:38:19;25.70;;;12.20;;
40198;SDS011;25906;43.536;26.068;2023-03-01T14:41:07;26.20;;;12.15;;
40198;SDS011;25906;43.536;26.068;2023-03-01T14:43:55;27.08;;;12.90;;
40198;SDS011;25906;43.536;26.068;2023-03-01T14:46:46;30.23;;;12.38;;
40198;SDS011;25906;43.536;26.068;2023-03-01T14:49:31;26.65;;;12.00;;
40198;SDS011;25906;43.536;26.068;2023-03-01T14:52:18;22.42;;;10.70;;
40198;SDS011;25906;43.536;26.068;2023-03-01T14:55:09;29.55;;;12.60;;
40198;SDS011;25906;43.536;26.068;2023-03-01T14:58:02;27.13;;;11.77;;
40198;SDS011;25906;43.536;26.068;2023-03-01T15:03:40;25.58;;;12.13;;
40198;SDS011;25906;43.536;26.068;2023-03-01T15:06:28;23.50;;;11.73;;
40198;SDS011;25906;43.536;26.068;2023-03-01T15:09:15;24.92;;;12.20;;
40198;SDS011;25906;43.536;26.068;2023-03-01T15:12:23;24.25;;;12.27;;
40198;SDS011;25906;43.536;26.068;2023-03-01T15:15:45;24.50;;;11.75;;
40198;SDS011;25906;43.536;26.068;2023-03-01T15:18:32;27.70;;;13.15;;
40198;SDS011;25906;43.536;26.068;2023-03-01T15:21:23;26.45;;;12.00;;
40198;SDS011;25906;43.536;26.068;2023-03-01T15:27:05;25.02;;;11.88;;
40198;SDS011;25906;43.536;26.068;2023-03-01T15:30:03;28.90;;;13.00;;
40198;SDS011;25906;43.536;26.068;2023-03-01T15:36:29;28.42;;;12.40;;
40198;SDS011;25906;43.536;26.068;2023-03-01T15:48:02;29.00;;;12.68;;
40198;SDS011;25906;43.536;26.068;2023-03-01T15:50:56;24.17;;;11.85;;
40198;SDS011;25906;43.536;26.068;2023-03-01T15:53:45;29.05;;;12.95;;
40198;SDS011;25906;43.536;26.068;2023-03-01T15:56:34;32.35;;;12.32;;
40198;SDS011;25906;43.536;26.068;2023-03-01T15:59:20;38.20;;;16.70;;
40198;SDS011;25906;43.536;26.068;2023-03-01T16:02:13;44.00;;;16.90;;
40198;SDS011;25906;43.536;26.068;2023-03-01T16:04:58;57.20;;;21.70;;
40198;SDS011;25906;43.536;26.068;2023-03-01T16:07:44;69.70;;;27.85;;
40198;SDS011;25906;43.536;26.068;2023-03-01T16:10:29;44.60;;;17.45;;
40198;SDS011;25906;43.536;26.068;2023-03-01T16:13:16;33.15;;;15.27;;
40198;SDS011;25906;43.536;26.068;2023-03-01T16:16:02;37.03;;;15.57;;
40198;SDS011;25906;43.536;26.068;2023-03-01T16:18:48;50.13;;;18.88;;
40198;SDS011;25906;43.536;26.068;2023-03-01T16:21:33;35.35;;;14.93;;
40198;SDS011;25906;43.536;26.068;2023-03-01T16:24:19;36.58;;;16.75;;
40198;SDS011;25906;43.536;26.068;2023-03-01T16:27:04;29.45;;;13.48;;
40198;SDS011;25906;43.536;26.068;2023-03-01T16:29:49;39.10;;;14.73;;
40198;SDS011;25906;43.536;26.068;2023-03-01T16:32:38;30.42;;;14.13;;
40198;SDS011;25906;43.536;26.068;2023-03-01T16:35:24;31.73;;;13.85;;
40198;SDS011;25906;43.536;26.068;2023-03-01T16:38:10;36.05;;;14.80;;
40198;SDS011;25906;43.536;26.068;2023-03-01T16:40:55;35.03;;;14.38;;
40198;SDS011;25906;43.536;26.068;2023-03-01T16:43:41;33.35;;;13.88;;
40198;SDS011;25906;43.536;26.068;2023-03-01T16:46:27;31.23;;;14.55;;
40198;SDS011;25906;43.536;26.068;2023-03-01T16:49:13;41.08;;;15.50;;
40198;SDS011;25906;43.536;26.068;2023-03-01T16:51:59;35.67;;;15.43;;
40198;SDS011;25906;43.536;26.068;2023-03-01T16:54:44;31.80;;;14.98;;
40198;SDS011;25906;43.536;26.068;2023-03-01T16:57:30;34.95;;;15.13;;
40198;SDS011;25906;43.536;26.068;2023-03-01T17:00:15;33.33;;;14.88;;
40198;SDS011;25906;43.536;26.068;2023-03-01T17:03:02;33.47;;;13.93;;
40198;SDS011;25906;43.536;26.068;2023-03-01T17:05:48;34.65;;;16.38;;
40198;SDS011;25906;43.536;26.068;2023-03-01T17:08:34;43.92;;;16.90;;
40198;SDS011;25906;43.536;26.068;2023-03-01T17:11:22;34.90;;;15.30;;
40198;SDS011;25906;43.536;26.068;2023-03-01T17:14:07;36.55;;;15.98;;
40198;SDS011;25906;43.536;26.068;2023-03-01T17:16:52;37.22;;;14.98;;
40198;SDS011;25906;43.536;26.068;2023-03-01T17:19:39;34.80;;;16.33;;
40198;SDS011;25906;43.536;26.068;2023-03-01T17:22:26;34.40;;;16.52;;
40198;SDS011;25906;43.536;26.068;2023-03-01T17:25:12;37.97;;;15.18;;
40198;SDS011;25906;43.536;26.068;2023-03-01T17:27:57;42.88;;;18.60;;
40198;SDS011;25906;43.536;26.068;2023-03-01T17:30:43;37.95;;;18.17;;
40198;SDS011;25906;43.536;26.068;2023-03-01T17:33:29;44.00;;;18.75;;
40198;SDS011;25906;43.536;26.068;2023-03-01T17:36:15;55.30;;;25.30;;
40198;SDS011;25906;43.536;26.068;2023-03-01T17:39:00;45.33;;;19.17;;
40198;SDS011;25906;43.536;26.068;2023-03-01T17:41:46;42.83;;;17.83;;
40198;SDS011;25906;43.536;26.068;2023-03-01T17:44:31;38.00;;;18.05;;
40198;SDS011;25906;43.536;26.068;2023-03-01T17:47:20;54.08;;;22.95;;
40198;SDS011;25906;43.536;26.068;2023-03-01T17:50:06;38.42;;;18.73;;
40198;SDS011;25906;43.536;26.068;2023-03-01T17:52:52;35.85;;;16.70;;
40198;SDS011;25906;43.536;26.068;2023-03-01T17:55:38;55.20;;;22.10;;
40198;SDS011;25906;43.536;26.068;2023-03-01T17:58:25;45.67;;;19.58;;
40198;SDS011;25906;43.536;26.068;2023-03-01T18:01:15;51.58;;;22.63;;
40198;SDS011;25906;43.536;26.068;2023-03-01T18:04:02;55.40;;;22.80;;
40198;SDS011;25906;43.536;26.068;2023-03-01T18:06:47;57.80;;;24.15;;
40198;SDS011;25906;43.536;26.068;2023-03-01T18:09:33;48.90;;;21.00;;
40198;SDS011;25906;43.536;26.068;2023-03-01T18:12:18;35.15;;;16.23;;
40198;SDS011;25906;43.536;26.068;2023-03-01T18:15:05;36.42;;;16.80;;
40198;SDS011;25906;43.536;26.068;2023-03-01T18:17:50;36.97;;;16.40;;
40198;SDS011;25906;43.536;26.068;2023-03-01T18:20:36;43.15;;;20.05;;
40198;SDS011;25906;43.536;26.068;2023-03-01T18:23:21;34.40;;;17.58;;
40198;SDS011;25906;43.536;26.068;2023-03-01T18:26:08;42.92;;;20.00;;
40198;SDS011;25906;43.536;26.068;2023-03-01T18:28:55;36.60;;;18.67;;
40198;SDS011;25906;43.536;26.068;2023-03-01T18:31:42;55.22;;;23.80;;
40198;SDS011;25906;43.536;26.068;2023-03-01T18:34:27;48.03;;;19.92;;
40198;SDS011;25906;43.536;26.068;2023-03-01T18:37:13;38.97;;;17.55;;
40198;SDS011;25906;43.536;26.068;2023-03-01T18:39:58;39.65;;;19.27;;
40198;SDS011;25906;43.536;26.068;2023-03-01T18:42:43;42.25;;;19.33;;
40198;SDS011;25906;43.536;26.068;2023-03-01T18:45:29;44.15;;;19.70;;
40198;SDS011;25906;43.536;26.068;2023-03-01T18:48:15;35.35;;;17.50;;